Time;durP1;ratioP1;P1;durP2;ratioP2;P2;SDS_P1;SDS_P2;PMS_P1;PMS_P2;Temp;Humidity;BMP_temperature;BMP_pressure;BME280_temperature;BME280_humidity;BME280_pressure;Samples;Min_cycle;Max_cycle;Signal;HPM_P1;HPM_P2
2023/12/01 00:02:24;;;;;;;5.40;4.97;;;;;;;;;;5053459;28;20053;-65
2023/12/01 00:04:53;;;;;;;6.55;5.20;;;;;;;;;;5045690;28;20417;-61
2023/12/01 00:07:23;;;;;;;5.22;4.85;;;;;;;;;;5045965;28;20562;-64
2023/12/01 00:09:52;;;;;;;4.65;4.25;;;;;;;;;;5048685;28;20494;-65
2023/12/01 00:12:20;;;;;;;5.50;5.10;;;;;;;;;;5043881;28;20052;-65
2023/12/01 00:14:49;;;;;;;5.40;4.90;;;;;;;;;;5041579;28;20134;-65
2023/12/01 00:17:17;;;;;;;4.78;4.43;;;;;;;;;;5041554;28;20075;-62
2023/12/01 00:19:46;;;;;;;5.80;5.30;;;;;;;;;;5049261;28;20114;-63
2023/12/01 00:22:15;;;;;;;6.15;5.65;;;;;;;;;;5046234;28;20053;-64
2023/12/01 00:24:45;;;;;;;5.47;5.07;;;;;;;;;;5047659;28;20079;-65
2023/12/01 00:27:13;;;;;;;5.90;5.40;;;;;;;;;;5044898;28;20060;-63
2023/12/01 00:29:42;;;;;;;5.05;4.47;;;;;;;;;;5043747;28;20457;-63
2023/12/01 00:32:11;;;;;;;4.65;4.25;;;;;;;;;;5040740;28;20069;-63
2023/12/01 00:34:39;;;;;;;5.32;4.80;;;;;;;;;;5037953;28;20088;-65
2023/12/01 00:37:23;;;;;;;4.68;4.28;;;;;;;;;;5040304;28;20106;-65
2023/12/01 00:39:53;;;;;;;5.40;4.90;;;;;;;;;;5042995;28;20041;-62
2023/12/01 00:42:21;;;;;;;5.20;4.70;;;;;;;;;;5045476;28;20040;-66
2023/12/01 00:44:50;;;;;;;5.47;4.65;;;;;;;;;;5048937;28;20057;-65
2023/12/01 00:47:18;;;;;;;5.78;5.32;;;;;;;;;;5049002;28;20033;-64
2023/12/01 00:49:47;;;;;;;4.82;4.53;;;;;;;;;;5048838;28;20398;-62
2023/12/01 00:52:15;;;;;;;5.53;5.05;;;;;;;;;;5042470;28;20042;-64
2023/12/01 00:54:44;;;;;;;5.45;5.00;;;;;;;;;;5041083;28;20057;-65
2023/12/01 00:57:14;;;;;;;5.57;5.18;;;;;;;;;;5043824;28;20552;-62
2023/12/01 00:59:42;;;;;;;5.07;4.65;;;;;;;;;;5045255;28;20390;-63
2023/12/01 01:02:10;;;;;;;5.18;4.78;;;;;;;;;;5041775;28;20037;-63
2023/12/01 01:04:39;;;;;;;5.07;4.68;;;;;;;;;;5046016;28;20049;-63
2023/12/01 01:07:07;;;;;;;5.97;5.47;;;;;;;;;;5039404;28;20045;-65
2023/12/01 01:09:36;;;;;;;5.20;4.80;;;;;;;;;;5043942;28;20046;-64
2023/12/01 01:12:04;;;;;;;5.30;4.90;;;;;;;;;;5049163;28;20131;-63
2023/12/01 01:14:35;;;;;;;5.00;4.60;;;;;;;;;;5047670;28;20259;-65
2023/12/01 01:17:03;;;;;;;5.10;4.70;;;;;;;;;;5046487;28;20486;-63
2023/12/01 01:19:32;;;;;;;5.05;4.65;;;;;;;;;;5048154;28;20049;-63
2023/12/01 01:22:00;;;;;;;5.20;4.70;;;;;;;;;;5041339;28;20806;-63
2023/12/01 01:24:28;;;;;;;5.00;4.68;;;;;;;;;;5039488;28;20440;-67
2023/12/01 01:26:57;;;;;;;5.53;5.03;;;;;;;;;;5039739;28;20406;-64
2023/12/01 01:29:25;;;;;;;5.50;5.00;;;;;;;;;;5043735;28;20489;-65
2023/12/01 01:31:55;;;;;;;5.28;4.53;;;;;;;;;;5043989;28;20468;-63
2023/12/01 01:34:24;;;;;;;5.80;5.30;;;;;;;;;;5046387;28;20440;-63
2023/12/01 01:36:52;;;;;;;5.85;5.03;;;;;;;;;;5048552;28;20103;-62
2023/12/01 01:39:20;;;;;;;5.80;5.20;;;;;;;;;;5040186;28;20218;-63
2023/12/01 01:41:49;;;;;;;5.40;5.00;;;;;;;;;;5043705;28;20056;-64
2023/12/01 01:44:17;;;;;;;5.15;4.70;;;;;;;;;;5045089;28;20053;-62
2023/12/01 01:46:47;;;;;;;4.95;4.55;;;;;;;;;;5042300;28;20520;-64
2023/12/01 01:49:17;;;;;;;5.35;4.85;;;;;;;;;;5046922;28;20051;-63
2023/12/01 01:51:45;;;;;;;5.97;5.47;;;;;;;;;;5042927;28;20045;-63
2023/12/01 01:54:15;;;;;;;5.72;5.22;;;;;;;;;;5048077;28;20052;-65
2023/12/01 01:56:43;;;;;;;5.28;4.88;;;;;;;;;;5045072;28;20115;-62
2023/12/01 01:59:12;;;;;;;5.18;4.75;;;;;;;;;;5038587;28;20041;-67
2023/12/01 02:01:40;;;;;;;5.65;5.15;;;;;;;;;;5038623;28;20041;-62
2023/12/01 02:04:09;;;;;;;5.57;5.07;;;;;;;;;;5038818;28;20075;-65
2023/12/01 02:06:39;;;;;;;5.78;5.10;;;;;;;;;;5048197;28;20122;-62
2023/12/01 02:09:08;;;;;;;5.80;5.30;;;;;;;;;;5042930;28;20123;-60
2023/12/01 02:11:37;;;;;;;5.70;5.20;;;;;;;;;;5045651;28;20095;-62
2023/12/01 02:14:05;;;;;;;5.28;4.80;;;;;;;;;;5039756;28;20053;-62
2023/12/01 02:16:34;;;;;;;4.95;4.45;;;;;;;;;;5040385;28;20098;-64
2023/12/01 02:19:02;;;;;;;5.05;4.65;;;;;;;;;;5040609;28;20045;-62
2023/12/01 02:21:36;;;;;;;5.57;5.07;;;;;;;;;;5047020;28;20052;-64
2023/12/01 02:24:05;;;;;;;5.30;4.90;;;;;;;;;;5043041;28;20455;-62
2023/12/01 02:26:33;;;;;;;5.13;4.70;;;;;;;;;;5038821;28;20528;-61
2023/12/01 02:29:04;;;;;;;4.90;4.40;;;;;;;;;;5040880;28;20046;-61
2023/12/01 02:31:35;;;;;;;4.95;4.55;;;;;;;;;;5039211;28;20056;-62
2023/12/01 02:34:04;;;;;;;5.75;5.25;;;;;;;;;;5042812;28;20144;-61
2023/12/01 02:36:32;;;;;;;4.93;4.53;;;;;;;;;;5042329;28;20045;-62
2023/12/01 02:39:02;;;;;;;4.55;4.22;;;;;;;;;;5038148;28;20049;-65
2023/12/01 02:41:31;;;;;;;6.20;5.60;;;;;;;;;;5046716;28;20578;-61
2023/12/01 02:43:59;;;;;;;5.82;5.30;;;;;;;;;;5040783;28;20053;-61
2023/12/01 02:46:27;;;;;;;5.57;5.07;;;;;;;;;;5038507;28;20449;-61
2023/12/01 02:48:56;;;;;;;5.10;4.70;;;;;;;;;;5042917;28;20528;-61
2023/12/01 02:51:25;;;;;;;5.65;5.15;;;;;;;;;;5044607;28;20034;-65
2023/12/01 02:53:53;;;;;;;4.88;4.47;;;;;;;;;;5037473;28;20410;-62
2023/12/01 02:56:23;;;;;;;5.40;5.00;;;;;;;;;;5043242;28;20076;-63
2023/12/01 02:58:51;;;;;;;5.13;4.72;;;;;;;;;;5047034;28;20049;-62
2023/12/01 03:01:19;;;;;;;5.25;4.53;;;;;;;;;;5044422;28;20103;-63
2023/12/01 03:03:48;;;;;;;5.10;4.70;;;;;;;;;;5044508;28;20049;-62
2023/12/01 03:06:16;;;;;;;5.07;4.68;;;;;;;;;;5042289;28;20037;-62
2023/12/01 03:08:46;;;;;;;5.20;4.80;;;;;;;;;;5047012;28;20052;-62
2023/12/01 03:11:14;;;;;;;4.80;4.40;;;;;;;;;;5044859;28;20041;-61
2023/12/01 03:13:44;;;;;;;6.75;5.53;;;;;;;;;;5036641;28;20099;-61
2023/12/01 03:16:12;;;;;;;5.32;4.93;;;;;;;;;;5042533;28;20137;-62
2023/12/01 03:18:41;;;;;;;5.50;5.00;;;;;;;;;;5040890;28;20052;-61
2023/12/01 03:21:12;;;;;;;6.28;5.28;;;;;;;;;;5042499;28;20045;-61
2023/12/01 03:23:42;;;;;;;5.13;4.72;;;;;;;;;;5045133;28;20045;-61
2023/12/01 03:26:11;;;;;;;5.50;5.10;;;;;;;;;;5040417;28;20053;-63
2023/12/01 03:28:39;;;;;;;5.35;4.78;;;;;;;;;;5042111;28;20131;-62
2023/12/01 03:31:09;;;;;;;4.82;4.43;;;;;;;;;;5042223;28;20095;-62
2023/12/01 03:33:37;;;;;;;4.95;4.60;;;;;;;;;;5047920;28;20065;-61
2023/12/01 03:36:06;;;;;;;5.50;5.07;;;;;;;;;;5038337;28;20056;-62
2023/12/01 03:38:35;;;;;;;5.38;4.97;;;;;;;;;;5044070;28;20045;-61
2023/12/01 03:41:05;;;;;;;5.13;4.63;;;;;;;;;;5045064;28;20045;-61
2023/12/01 03:43:34;;;;;;;6.05;5.15;;;;;;;;;;5046011;28;20136;-63
2023/12/01 03:46:03;;;;;;;4.90;4.55;;;;;;;;;;5045865;28;20049;-62
2023/12/01 03:48:34;;;;;;;5.90;5.40;;;;;;;;;;5047157;28;20414;-61
2023/12/01 03:51:02;;;;;;;5.60;5.13;;;;;;;;;;5048689;28;20044;-63
2023/12/01 03:53:32;;;;;;;5.53;5.13;;;;;;;;;;5048052;28;20052;-62
2023/12/01 03:56:00;;;;;;;4.80;4.40;;;;;;;;;;5048175;28;20497;-61
2023/12/01 03:58:29;;;;;;;5.82;5.22;;;;;;;;;;5047651;28;20053;-63
2023/12/01 04:00:57;;;;;;;5.55;5.15;;;;;;;;;;5044139;28;20076;-64
2023/12/01 04:03:26;;;;;;;5.65;5.25;;;;;;;;;;5044130;28;20446;-63
2023/12/01 04:06:01;;;;;;;5.85;5.40;;;;;;;;;;5043866;28;20283;-62
2023/12/01 04:08:29;;;;;;;5.47;4.97;;;;;;;;;;5049326;28;20091;-62
2023/12/01 04:10:57;;;;;;;5.80;5.30;;;;;;;;;;5045688;28;20444;-60
2023/12/01 04:13:27;;;;;;;5.53;5.03;;;;;;;;;;5050609;28;20095;-63
2023/12/01 04:15:55;;;;;;;5.55;5.13;;;;;;;;;;5046824;28;20076;-64
2023/12/01 04:18:24;;;;;;;8.98;5.20;;;;;;;;;;5048545;28;20126;-63
2023/12/01 04:20:52;;;;;;;6.03;5.53;;;;;;;;;;5049189;28;20079;-61
2023/12/01 04:23:22;;;;;;;5.75;5.28;;;;;;;;;;5040298;28;20041;-61
2023/12/01 04:25:50;;;;;;;5.25;4.85;;;;;;;;;;5048548;28;20041;-62
2023/12/01 04:28:18;;;;;;;5.60;5.10;;;;;;;;;;5044152;28;20568;-65
2023/12/01 04:30:47;;;;;;;5.60;5.20;;;;;;;;;;5046969;28;20052;-62
2023/12/01 04:33:15;;;;;;;6.43;5.93;;;;;;;;;;5050459;28;20124;-62
2023/12/01 04:35:44;;;;;;;5.53;5.13;;;;;;;;;;5043300;28;20075;-62
2023/12/01 04:38:12;;;;;;;7.22;5.80;;;;;;;;;;5049358;28;20076;-64
2023/12/01 04:40:42;;;;;;;5.40;5.00;;;;;;;;;;5043156;28;20115;-63
2023/12/01 04:43:10;;;;;;;5.40;5.00;;;;;;;;;;5049455;28;20086;-63
2023/12/01 04:45:38;;;;;;;5.75;5.25;;;;;;;;;;5045890;28;20416;-62
2023/12/01 04:48:08;;;;;;;5.55;5.13;;;;;;;;;;5047461;28;20053;-62
2023/12/01 04:50:40;;;;;;;5.63;5.13;;;;;;;;;;5046433;28;20783;-61
2023/12/01 04:53:09;;;;;;;5.80;5.15;;;;;;;;;;5048516;28;20048;-65
2023/12/01 04:55:37;;;;;;;5.82;5.30;;;;;;;;;;5045865;28;20469;-64
2023/12/01 04:58:07;;;;;;;5.30;4.82;;;;;;;;;;5048467;28;20041;-63
2023/12/01 05:00:36;;;;;;;5.35;4.95;;;;;;;;;;5040232;28;20466;-64
2023/12/01 05:03:05;;;;;;;5.43;4.93;;;;;;;;;;5039210;28;20053;-63
2023/12/01 05:05:34;;;;;;;6.00;5.07;;;;;;;;;;5047965;28;20464;-63
2023/12/01 05:08:04;;;;;;;4.72;4.43;;;;;;;;;;5048649;28;20162;-63
2023/12/01 05:10:34;;;;;;;6.28;5.68;;;;;;;;;;5041603;28;20064;-64
2023/12/01 05:13:03;;;;;;;5.35;4.95;;;;;;;;;;5044673;28;20541;-62
2023/12/01 05:15:33;;;;;;;4.82;4.53;;;;;;;;;;5045763;28;20048;-62
2023/12/01 05:18:02;;;;;;;5.28;4.88;;;;;;;;;;5047721;28;20571;-63
2023/12/01 05:20:31;;;;;;;5.30;4.80;;;;;;;;;;5042501;28;20081;-62
2023/12/01 05:23:01;;;;;;;5.88;5.38;;;;;;;;;;5045172;28;20045;-63
2023/12/01 05:25:32;;;;;;;5.63;5.13;;;;;;;;;;5043788;28;20073;-64
2023/12/01 05:28:02;;;;;;;6.82;5.57;;;;;;;;;;5046181;28;20055;-65
2023/12/01 05:30:33;;;;;;;5.55;5.05;;;;;;;;;;5043916;28;20076;-62
2023/12/01 05:33:02;;;;;;;5.97;5.47;;;;;;;;;;5044706;28;20056;-63
2023/12/01 05:35:31;;;;;;;5.88;5.38;;;;;;;;;;5043476;28;20140;-63
2023/12/01 05:38:00;;;;;;;5.97;5.40;;;;;;;;;;5041534;28;20044;-63
2023/12/01 05:40:28;;;;;;;5.78;5.25;;;;;;;;;;5041243;28;20111;-66
2023/12/01 05:42:57;;;;;;;6.18;5.65;;;;;;;;;;5045224;28;20133;-61
2023/12/01 05:45:26;;;;;;;6.85;5.53;;;;;;;;;;5044549;28;20056;-63
2023/12/01 05:47:57;;;;;;;5.65;5.25;;;;;;;;;;5046053;28;20403;-62
2023/12/01 05:50:26;;;;;;;6.53;5.47;;;;;;;;;;5047458;28;20052;-63
2023/12/01 05:52:56;;;;;;;5.50;5.10;;;;;;;;;;5046685;28;20049;-64
2023/12/01 05:55:25;;;;;;;6.22;5.72;;;;;;;;;;5045409;28;20053;-64
2023/12/01 05:57:54;;;;;;;5.25;4.85;;;;;;;;;;5037487;28;20085;-63
2023/12/01 06:00:26;;;;;;;7.22;5.68;;;;;;;;;;5042651;28;20049;-63
2023/12/01 06:02:57;;;;;;;5.53;5.13;;;;;;;;;;5048666;28;20049;-63
2023/12/01 06:05:26;;;;;;;5.85;5.32;;;;;;;;;;5046341;28;20080;-68
2023/12/01 06:07:55;;;;;;;6.68;6.07;;;;;;;;;;5035335;28;20056;-67
2023/12/01 06:10:24;;;;;;;6.00;5.40;;;;;;;;;;5036795;28;20037;-65
2023/12/01 06:12:52;;;;;;;5.10;4.68;;;;;;;;;;5043031;28;20080;-63
2023/12/01 06:15:21;;;;;;;6.28;5.78;;;;;;;;;;5044074;28;20048;-64
2023/12/01 06:17:51;;;;;;;7.35;5.75;;;;;;;;;;5047744;28;20493;-63
2023/12/01 06:20:22;;;;;;;5.75;5.30;;;;;;;;;;5040978;28;20057;-63
2023/12/01 06:22:51;;;;;;;5.85;5.45;;;;;;;;;;5037979;28;20060;-62
2023/12/01 06:25:20;;;;;;;5.70;5.22;;;;;;;;;;5040635;28;20490;-63
2023/12/01 06:27:49;;;;;;;6.90;6.32;;;;;;;;;;5046640;28;20154;-63
2023/12/01 06:30:18;;;;;;;5.93;5.32;;;;;;;;;;5048194;28;20506;-68
2023/12/01 06:32:47;;;;;;;5.53;5.03;;;;;;;;;;5039674;28;20056;-64
2023/12/01 06:35:16;;;;;;;6.25;5.63;;;;;;;;;;5036420;28;20049;-65
2023/12/01 06:37:46;;;;;;;5.70;5.22;;;;;;;;;;5041724;28;20080;-64
2023/12/01 06:40:18;;;;;;;6.30;5.70;;;;;;;;;;5042295;28;20045;-63
2023/12/01 06:42:48;;;;;;;7.35;6.68;;;;;;;;;;5045767;28;20142;-64
2023/12/01 06:45:17;;;;;;;6.10;5.50;;;;;;;;;;5043440;28;20583;-64
2023/12/01 06:47:47;;;;;;;6.45;5.85;;;;;;;;;;5040103;28;20053;-64
2023/12/01 06:50:16;;;;;;;5.30;4.80;;;;;;;;;;5035805;28;20041;-63
2023/12/01 06:52:46;;;;;;;5.85;5.00;;;;;;;;;;5038853;28;20050;-63
2023/12/01 06:55:14;;;;;;;6.53;5.53;;;;;;;;;;5045304;28;20344;-64
2023/12/01 06:57:43;;;;;;;5.43;5.03;;;;;;;;;;5038740;28;20049;-62
2023/12/01 07:00:28;;;;;;;5.95;5.43;;;;;;;;;;5036771;28;20092;-62
2023/12/01 07:03:00;;;;;;;5.30;4.80;;;;;;;;;;5037049;28;20042;-61
2023/12/01 07:05:29;;;;;;;5.60;5.10;;;;;;;;;;5040762;28;20120;-64
2023/12/01 07:08:00;;;;;;;5.15;4.75;;;;;;;;;;5046326;28;20352;-61
2023/12/01 07:10:29;;;;;;;5.63;5.13;;;;;;;;;;5044640;28;20056;-62
2023/12/01 07:12:59;;;;;;;5.50;4.97;;;;;;;;;;5047241;28;20060;-61
2023/12/01 07:15:29;;;;;;;5.60;5.10;;;;;;;;;;5047873;28;20045;-63
2023/12/01 07:17:58;;;;;;;5.32;4.82;;;;;;;;;;5048113;28;20049;-63
2023/12/01 07:20:27;;;;;;;4.60;4.30;;;;;;;;;;5048487;28;20045;-61
2023/12/01 07:22:55;;;;;;;6.63;5.28;;;;;;;;;;5040884;28;20041;-62
2023/12/01 07:25:25;;;;;;;4.70;4.30;;;;;;;;;;5049116;28;20067;-62
2023/12/01 07:27:56;;;;;;;4.80;4.40;;;;;;;;;;5044249;28;20077;-62
2023/12/01 07:30:24;;;;;;;4.60;4.20;;;;;;;;;;5046531;28;20085;-62
2023/12/01 07:32:53;;;;;;;5.28;4.78;;;;;;;;;;5044047;28;20520;-63
2023/12/01 07:35:22;;;;;;;4.63;4.22;;;;;;;;;;5034075;28;20049;-65
2023/12/01 07:37:52;;;;;;;4.65;4.25;;;;;;;;;;5040748;28;20110;-62
2023/12/01 07:40:23;;;;;;;5.28;4.88;;;;;;;;;;5038271;28;20057;-61
2023/12/01 07:42:55;;;;;;;5.10;4.60;;;;;;;;;;5051480;28;20114;-63
2023/12/01 07:45:24;;;;;;;5.50;5.03;;;;;;;;;;5046631;28;20101;-63
2023/12/01 07:47:53;;;;;;;5.07;4.22;;;;;;;;;;5044497;28;20124;-61
2023/12/01 07:50:25;;;;;;;5.80;4.32;;;;;;;;;;5050304;28;20056;-63
2023/12/01 07:52:56;;;;;;;5.57;5.07;;;;;;;;;;5048017;28;20048;-64
2023/12/01 07:55:25;;;;;;;4.97;4.57;;;;;;;;;;5049933;28;20469;-62
2023/12/01 07:57:55;;;;;;;5.07;4.63;;;;;;;;;;5049379;28;20366;-61
2023/12/01 08:00:24;;;;;;;5.10;4.60;;;;;;;;;;5034838;28;20076;-60
2023/12/01 08:02:53;;;;;;;6.38;5.03;;;;;;;;;;5043212;28;20052;-60
2023/12/01 08:05:23;;;;;;;5.43;4.93;;;;;;;;;;5035902;28;20045;-61
2023/12/01 08:07:54;;;;;;;7.85;5.00;;;;;;;;;;5043809;28;20037;-63
2023/12/01 08:10:27;;;;;;;5.88;4.70;;;;;;;;;;5040027;28;20052;-60
2023/12/01 08:13:00;;;;;;;4.40;4.10;;;;;;;;;;5034922;28;20114;-60
2023/12/01 08:15:30;;;;;;;5.10;4.53;;;;;;;;;;5048037;28;20518;-62
2023/12/01 08:17:59;;;;;;;4.43;3.80;;;;;;;;;;5035141;28;20522;-61
2023/12/01 08:20:29;;;;;;;4.28;3.95;;;;;;;;;;5046899;28;20053;-62
2023/12/01 08:22:59;;;;;;;4.70;3.90;;;;;;;;;;5043676;28;20052;-61
2023/12/01 08:25:29;;;;;;;5.00;4.50;;;;;;;;;;5047731;28;20049;-60
2023/12/01 08:28:00;;;;;;;4.90;4.50;;;;;;;;;;5044998;28;20051;-63
2023/12/01 08:30:29;;;;;;;4.88;4.38;;;;;;;;;;5047982;28;20088;-60
2023/12/01 08:32:58;;;;;;;5.15;4.43;;;;;;;;;;5042570;28;20131;-61
2023/12/01 08:35:27;;;;;;;4.72;4.32;;;;;;;;;;5046578;28;20044;-62
2023/12/01 08:37:55;;;;;;;4.78;4.38;;;;;;;;;;5043710;28;20045;-61
2023/12/01 08:40:24;;;;;;;4.97;4.47;;;;;;;;;;5034649;28;20041;-60
2023/12/01 08:42:55;;;;;;;5.38;4.07;;;;;;;;;;5044203;28;20037;-60
2023/12/01 08:45:25;;;;;;;5.40;4.72;;;;;;;;;;5042141;28;20049;-61
2023/12/01 08:47:53;;;;;;;4.68;4.28;;;;;;;;;;5047783;28;20041;-60
2023/12/01 08:50:22;;;;;;;7.78;5.20;;;;;;;;;;5037507;28;20042;-59
2023/12/01 08:52:51;;;;;;;4.95;4.55;;;;;;;;;;5045133;28;20065;-59
2023/12/01 08:55:19;;;;;;;5.20;4.80;;;;;;;;;;5047547;28;20052;-62
2023/12/01 08:57:47;;;;;;;9.07;5.38;;;;;;;;;;5049462;28;20052;-61
2023/12/01 09:00:20;;;;;;;8.40;5.05;;;;;;;;;;5036496;28;20072;-59
2023/12/01 09:02:52;;;;;;;5.03;4.63;;;;;;;;;;5047112;28;20447;-60
2023/12/01 09:05:21;;;;;;;6.25;3.95;;;;;;;;;;5049854;28;20100;-61
2023/12/01 09:07:50;;;;;;;5.30;4.50;;;;;;;;;;5042481;28;20051;-65
2023/12/01 09:10:19;;;;;;;5.07;4.68;;;;;;;;;;5045233;28;20053;-63
2023/12/01 09:12:48;;;;;;;4.40;4.10;;;;;;;;;;5047933;28;20041;-60
2023/12/01 09:15:17;;;;;;;4.75;4.35;;;;;;;;;;5044219;28;20482;-60
2023/12/01 09:17:45;;;;;;;5.68;4.15;;;;;;;;;;5046092;28;20512;-59
2023/12/01 09:20:16;;;;;;;4.82;4.43;;;;;;;;;;5047256;28;20056;-60
2023/12/01 09:22:44;;;;;;;5.60;4.45;;;;;;;;;;5048588;28;20049;-61
2023/12/01 09:25:12;;;;;;;5.55;4.35;;;;;;;;;;5044470;28;20091;-61
2023/12/01 09:27:42;;;;;;;5.55;4.78;;;;;;;;;;5040540;28;20041;-65
2023/12/01 09:30:15;;;;;;;5.50;5.00;;;;;;;;;;5044937;28;20349;-59
2023/12/01 09:32:44;;;;;;;5.15;4.65;;;;;;;;;;5030893;28;20054;-60
2023/12/01 09:35:15;;;;;;;5.28;4.78;;;;;;;;;;5036634;28;20037;-63
2023/12/01 09:38:04;;;;;;;5.30;4.43;;;;;;;;;;5044104;28;20071;-63
2023/12/01 09:40:34;;;;;;;4.90;4.50;;;;;;;;;;5041793;28;20422;-60
2023/12/01 09:43:03;;;;;;;4.50;4.10;;;;;;;;;;5046732;28;20494;-63
2023/12/01 09:45:31;;;;;;;4.88;4.45;;;;;;;;;;5041414;28;20041;-63
2023/12/01 09:48:03;;;;;;;5.03;4.57;;;;;;;;;;5036807;28;20103;-60
2023/12/01 09:50:31;;;;;;;4.80;4.40;;;;;;;;;;5048566;28;20059;-60
2023/12/01 09:53:00;;;;;;;4.72;4.25;;;;;;;;;;5039870;28;20044;-59
2023/12/01 09:55:30;;;;;;;4.57;4.18;;;;;;;;;;5041311;28;20043;-61
2023/12/01 09:57:59;;;;;;;4.07;3.78;;;;;;;;;;5038388;28;20073;-60
2023/12/01 10:00:27;;;;;;;4.88;4.43;;;;;;;;;;5045921;28;20171;-59
2023/12/01 10:02:56;;;;;;;4.90;4.50;;;;;;;;;;5046867;28;20075;-60
2023/12/01 10:05:25;;;;;;;4.95;4.55;;;;;;;;;;5045989;28;20125;-59
2023/12/01 10:07:54;;;;;;;5.85;4.97;;;;;;;;;;5041693;28;20041;-59
2023/12/01 10:10:26;;;;;;;4.90;4.53;;;;;;;;;;5041581;28;20494;-61
2023/12/01 10:12:58;;;;;;;5.10;4.65;;;;;;;;;;5044996;28;20063;-60
2023/12/01 10:15:27;;;;;;;5.32;4.82;;;;;;;;;;5047224;28;20056;-59
2023/12/01 10:18:09;;;;;;;5.28;4.80;;;;;;;;;;5048128;28;20040;-59
2023/12/01 10:20:49;;;;;;;4.60;4.20;;;;;;;;;;5035552;28;20313;-59
2023/12/01 10:23:18;;;;;;;5.65;5.15;;;;;;;;;;5045181;28;20045;-60
2023/12/01 10:25:50;;;;;;;6.47;4.82;;;;;;;;;;5046059;28;20369;-60
2023/12/01 10:28:20;;;;;;;5.97;5.47;;;;;;;;;;5040143;28;20056;-61
2023/12/01 10:30:55;;;;;;;5.38;4.88;;;;;;;;;;5043336;28;20552;-61
2023/12/01 10:33:23;;;;;;;5.63;5.10;;;;;;;;;;5046284;28;20102;-60
2023/12/01 10:36:02;;;;;;;4.85;4.40;;;;;;;;;;5031997;28;20079;-60
2023/12/01 10:38:30;;;;;;;5.65;5.15;;;;;;;;;;5040479;28;20052;-60
2023/12/01 10:40:59;;;;;;;5.63;4.82;;;;;;;;;;5047243;28;20110;-61
2023/12/01 10:43:29;;;;;;;5.88;5.32;;;;;;;;;;5045768;28;20048;-61
2023/12/01 10:46:00;;;;;;;5.95;5.35;;;;;;;;;;5036169;28;20041;-60
2023/12/01 10:48:30;;;;;;;6.35;4.43;;;;;;;;;;5040953;28;20092;-59
2023/12/01 10:50:59;;;;;;;6.60;5.93;;;;;;;;;;5045433;28;20045;-60
2023/12/01 10:53:29;;;;;;;5.63;4.57;;;;;;;;;;5039003;28;20052;-60
2023/12/01 10:56:00;;;;;;;5.68;5.18;;;;;;;;;;5044379;28;20453;-63
2023/12/01 10:58:34;;;;;;;5.40;4.90;;;;;;;;;;5030946;28;20060;-60
2023/12/01 11:01:04;;;;;;;5.85;5.25;;;;;;;;;;5042287;28;20060;-59
2023/12/01 11:03:34;;;;;;;6.05;5.47;;;;;;;;;;5029815;28;20326;-60
2023/12/01 11:06:03;;;;;;;7.63;5.97;;;;;;;;;;5042981;28;20045;-60
2023/12/01 11:08:42;;;;;;;5.25;4.75;;;;;;;;;;5033998;28;20056;-60
2023/12/01 11:11:16;;;;;;;6.32;5.72;;;;;;;;;;5036300;28;20130;-59
2023/12/01 11:13:52;;;;;;;6.28;5.38;;;;;;;;;;5036209;28;20453;-60
2023/12/01 11:16:21;;;;;;;5.50;5.00;;;;;;;;;;5037414;28;20372;-60
2023/12/01 11:18:49;;;;;;;7.03;5.32;;;;;;;;;;5042817;28;20060;-60
2023/12/01 11:21:18;;;;;;;5.47;4.95;;;;;;;;;;5039458;28;20411;-59
2023/12/01 11:23:47;;;;;;;6.10;5.50;;;;;;;;;;5039638;28;20454;-60
2023/12/01 11:26:18;;;;;;;6.78;5.95;;;;;;;;;;5043112;28;20059;-60
2023/12/01 11:28:55;;;;;;;6.70;5.97;;;;;;;;;;5043031;28;20772;-62
2023/12/01 11:31:36;;;;;;;5.90;5.30;;;;;;;;;;5038668;28;20060;-63
2023/12/01 11:34:08;;;;;;;5.00;4.50;;;;;;;;;;5042888;28;20037;-60
2023/12/01 11:36:38;;;;;;;5.88;5.28;;;;;;;;;;5044406;28;20045;-59
2023/12/01 11:39:16;;;;;;;5.82;5.32;;;;;;;;;;5047234;28;20143;-60
2023/12/01 11:41:46;;;;;;;8.50;5.70;;;;;;;;;;5042258;28;20060;-62
2023/12/01 11:44:16;;;;;;;5.97;5.38;;;;;;;;;;5046144;28;20052;-59
2023/12/01 11:46:47;;;;;;;5.82;5.32;;;;;;;;;;5032976;28;20045;-60
2023/12/01 11:49:16;;;;;;;6.03;5.47;;;;;;;;;;5026877;28;20107;-60
2023/12/01 11:51:45;;;;;;;5.35;4.85;;;;;;;;;;5020125;28;20054;-60
2023/12/01 11:54:13;;;;;;;7.00;6.30;;;;;;;;;;5026399;28;20291;-60
2023/12/01 11:56:47;;;;;;;5.57;5.00;;;;;;;;;;5024761;28;20045;-61
2023/12/01 11:59:15;;;;;;;5.40;5.00;;;;;;;;;;5019051;28;20050;-60
2023/12/01 12:01:44;;;;;;;6.25;5.68;;;;;;;;;;5020509;28;20053;-59
2023/12/01 12:04:16;;;;;;;7.05;5.70;;;;;;;;;;5019272;28;20046;-60
2023/12/01 12:06:45;;;;;;;6.13;5.53;;;;;;;;;;5024036;28;20069;-59
2023/12/01 12:09:17;;;;;;;5.95;5.45;;;;;;;;;;5020050;28;20041;-60
2023/12/01 12:11:46;;;;;;;5.95;5.45;;;;;;;;;;5023636;28;20566;-59
2023/12/01 12:14:15;;;;;;;5.50;4.97;;;;;;;;;;5029434;28;20859;-59
2023/12/01 12:16:44;;;;;;;6.30;5.63;;;;;;;;;;5021487;28;20137;-59
2023/12/01 12:19:12;;;;;;;5.50;5.00;;;;;;;;;;5023519;28;20096;-59
2023/12/01 12:21:42;;;;;;;5.72;5.22;;;;;;;;;;5022008;28;20049;-61
2023/12/01 12:24:11;;;;;;;5.70;5.18;;;;;;;;;;5009902;28;20430;-60
2023/12/01 12:26:39;;;;;;;5.55;5.05;;;;;;;;;;5021551;28;20470;-61
2023/12/01 12:29:08;;;;;;;5.88;5.28;;;;;;;;;;5029951;28;20050;-60
2023/12/01 12:31:37;;;;;;;6.25;5.70;;;;;;;;;;5022674;28;20142;-59
2023/12/01 12:34:06;;;;;;;9.18;5.28;;;;;;;;;;5029484;28;20144;-60
2023/12/01 12:36:36;;;;;;;5.97;5.45;;;;;;;;;;5023787;28;20049;-61
2023/12/01 12:39:07;;;;;;;6.47;5.93;;;;;;;;;;5026039;28;20072;-60
2023/12/01 12:41:36;;;;;;;5.85;5.35;;;;;;;;;;5017251;28;20438;-60
2023/12/01 12:44:05;;;;;;;5.75;5.30;;;;;;;;;;5018595;28;20565;-60
2023/12/01 12:46:34;;;;;;;6.40;5.80;;;;;;;;;;5022461;28;20037;-61
2023/12/01 12:49:04;;;;;;;6.80;6.10;;;;;;;;;;5036947;28;20053;-61
2023/12/01 12:51:33;;;;;;;6.47;5.82;;;;;;;;;;5033598;28;20438;-59
2023/12/01 12:54:01;;;;;;;6.30;5.70;;;;;;;;;;5036316;28;20158;-59
2023/12/01 12:56:32;;;;;;;6.43;5.85;;;;;;;;;;5043605;28;20132;-60
2023/12/01 12:59:00;;;;;;;6.05;5.45;;;;;;;;;;5040599;28;20073;-59
2023/12/01 13:01:29;;;;;;;6.45;5.85;;;;;;;;;;5042307;28;20102;-59
2023/12/01 13:03:57;;;;;;;6.38;5.78;;;;;;;;;;5038836;28;20079;-61
2023/12/01 13:06:26;;;;;;;7.07;6.43;;;;;;;;;;5040631;28;20053;-59
2023/12/01 13:08:54;;;;;;;6.63;5.95;;;;;;;;;;5033398;28;20059;-61
2023/12/01 13:11:23;;;;;;;7.05;6.38;;;;;;;;;;5044201;28;20065;-60
2023/12/01 13:13:53;;;;;;;6.35;5.75;;;;;;;;;;5041777;28;20502;-60
2023/12/01 13:16:21;;;;;;;6.43;5.82;;;;;;;;;;5038914;28;20053;-60
2023/12/01 13:18:50;;;;;;;8.90;6.68;;;;;;;;;;5046933;28;20049;-61
2023/12/01 13:21:19;;;;;;;7.07;6.47;;;;;;;;;;5046307;28;20143;-59
2023/12/01 13:23:47;;;;;;;6.22;5.65;;;;;;;;;;5048305;28;20513;-59
2023/12/01 13:26:16;;;;;;;7.55;6.78;;;;;;;;;;5037581;28;20478;-60
2023/12/01 13:28:46;;;;;;;6.50;5.90;;;;;;;;;;5039806;28;20049;-60
2023/12/01 13:31:16;;;;;;;6.20;5.57;;;;;;;;;;5043157;28;20118;-61
2023/12/01 13:33:45;;;;;;;7.68;6.40;;;;;;;;;;5038171;28;20411;-61
2023/12/01 13:36:13;;;;;;;7.75;6.35;;;;;;;;;;5031792;28;20059;-60
2023/12/01 13:38:42;;;;;;;7.32;6.30;;;;;;;;;;5044357;28;20049;-59
2023/12/01 13:41:11;;;;;;;8.20;6.65;;;;;;;;;;5031285;28;20421;-59
2023/12/01 13:43:40;;;;;;;7.20;6.50;;;;;;;;;;5046598;28;20064;-60
2023/12/01 13:46:08;;;;;;;6.57;5.88;;;;;;;;;;5040790;28;20520;-60
2023/12/01 13:48:38;;;;;;;6.32;5.70;;;;;;;;;;5045884;28;20051;-59
2023/12/01 13:51:07;;;;;;;6.38;5.78;;;;;;;;;;5041883;28;20072;-60
2023/12/01 13:53:36;;;;;;;6.57;5.97;;;;;;;;;;5034964;28;20499;-61
2023/12/01 13:56:04;;;;;;;6.95;6.25;;;;;;;;;;5041230;28;20053;-59
2023/12/01 13:58:40;;;;;;;6.28;5.68;;;;;;;;;;5040051;28;20114;-59
2023/12/01 14:01:12;;;;;;;5.70;5.20;;;;;;;;;;5047616;28;20049;-59
2023/12/01 14:03:42;;;;;;;6.85;6.25;;;;;;;;;;5045281;28;20053;-59
2023/12/01 14:06:11;;;;;;;5.15;4.75;;;;;;;;;;5038991;28;20084;-60
2023/12/01 14:08:40;;;;;;;6.35;5.75;;;;;;;;;;5035902;28;20123;-60
2023/12/01 14:11:08;;;;;;;6.18;5.57;;;;;;;;;;5042339;28;20049;-60
2023/12/01 14:13:38;;;;;;;6.88;6.18;;;;;;;;;;5030885;28;20045;-61
2023/12/01 14:16:07;;;;;;;6.63;5.82;;;;;;;;;;5044238;28;20055;-61
2023/12/01 14:18:37;;;;;;;6.07;5.32;;;;;;;;;;5039630;28;20490;-59
2023/12/01 14:21:07;;;;;;;6.53;5.85;;;;;;;;;;5041904;28;20045;-60
2023/12/01 14:23:36;;;;;;;5.82;5.30;;;;;;;;;;5036795;28;20494;-60
2023/12/01 14:26:04;;;;;;;6.57;5.85;;;;;;;;;;5037520;28;20501;-61
2023/12/01 14:28:33;;;;;;;6.20;5.60;;;;;;;;;;5043436;28;20072;-59
2023/12/01 14:31:03;;;;;;;6.25;5.65;;;;;;;;;;5036476;28;20045;-60
2023/12/01 14:33:31;;;;;;;6.53;5.22;;;;;;;;;;5030422;28;20073;-60
2023/12/01 14:36:00;;;;;;;6.53;5.93;;;;;;;;;;5041503;28;20053;-60
2023/12/01 14:38:30;;;;;;;6.00;5.50;;;;;;;;;;5041819;28;20052;-59
2023/12/01 14:40:58;;;;;;;6.68;6.07;;;;;;;;;;5040080;28;20485;-60
2023/12/01 14:43:26;;;;;;;7.70;6.22;;;;;;;;;;5041554;28;20049;-59
2023/12/01 14:45:55;;;;;;;6.13;5.57;;;;;;;;;;5044934;28;20149;-60
2023/12/01 14:48:24;;;;;;;6.15;5.55;;;;;;;;;;5043752;28;20056;-60
2023/12/01 14:50:52;;;;;;;6.57;5.93;;;;;;;;;;5046047;28;20147;-61
2023/12/01 14:53:20;;;;;;;6.97;6.25;;;;;;;;;;5045021;28;20057;-60
2023/12/01 14:55:50;;;;;;;7.47;5.65;;;;;;;;;;5044641;28;20052;-59
2023/12/01 14:58:19;;;;;;;5.82;5.30;;;;;;;;;;5043297;28;20060;-63